sensor_id;sensor_type;location;lat;lon;timestamp;pressure;altitude;pressure_sealevel;temperature;humidity
84522;BME280;74758;50.066;20.008;2024-03-06T00:00:11;99431.38;;;4.97;71.05
84522;BME280;74758;50.066;20.008;2024-03-06T00:01:13;99431.30;;;4.95;71.18
84522;BME280;74758;50.066;20.008;2024-03-06T00:02:14;99428.57;;;4.94;71.25
84522;BME280;74758;50.066;20.008;2024-03-06T00:03:16;99427.73;;;4.94;71.28
84522;BME280;74758;50.066;20.008;2024-03-06T00:04:18;99427.20;;;4.94;71.29
84522;BME280;74758;50.066;20.008;2024-03-06T00:05:20;99429.44;;;4.94;70.87
84522;BME280;74758;50.066;20.008;2024-03-06T00:06:22;99427.56;;;4.94;71.56
84522;BME280;74758;50.066;20.008;2024-03-06T00:07:24;99430.81;;;4.92;71.37
84522;BME280;74758;50.066;20.008;2024-03-06T00:08:25;99427.65;;;4.90;71.20
84522;BME280;74758;50.066;20.008;2024-03-06T00:09:27;99429.77;;;4.87;71.65
84522;BME280;74758;50.066;20.008;2024-03-06T00:10:29;99430.59;;;4.85;71.65
84522;BME280;74758;50.066;20.008;2024-03-06T00:11:31;99432.32;;;4.82;71.36
84522;BME280;74758;50.066;20.008;2024-03-06T00:12:34;99431.92;;;4.80;71.28
84522;BME280;74758;50.066;20.008;2024-03-06T00:13:35;99432.39;;;4.78;71.06
84522;BME280;74758;50.066;20.008;2024-03-06T00:14:37;99428.34;;;4.76;70.91
84522;BME280;74758;50.066;20.008;2024-03-06T00:15:39;99433.90;;;4.76;71.51
84522;BME280;74758;50.066;20.008;2024-03-06T00:16:42;99430.36;;;4.74;71.17
84522;BME280;74758;50.066;20.008;2024-03-06T00:17:44;99433.74;;;4.73;71.64
84522;BME280;74758;50.066;20.008;2024-03-06T00:18:46;99431.45;;;4.71;71.72
84522;BME280;74758;50.066;20.008;2024-03-06T00:19:48;99432.84;;;4.71;71.53
84522;BME280;74758;50.066;20.008;2024-03-06T00:20:50;99434.42;;;4.71;71.58
84522;BME280;74758;50.066;20.008;2024-03-06T00:21:51;99434.03;;;4.71;71.71
84522;BME280;74758;50.066;20.008;2024-03-06T00:22:53;99436.67;;;4.71;71.40
84522;BME280;74758;50.066;20.008;2024-03-06T00:23:55;99438.37;;;4.69;71.00
84522;BME280;74758;50.066;20.008;2024-03-06T00:24:57;99440.23;;;4.67;71.09
84522;BME280;74758;50.066;20.008;2024-03-06T00:25:58;99441.78;;;4.65;71.07
84522;BME280;74758;50.066;20.008;2024-03-06T00:27:00;99439.57;;;4.61;70.95
84522;BME280;74758;50.066;20.008;2024-03-06T00:28:03;99441.05;;;4.57;70.92
84522;BME280;74758;50.066;20.008;2024-03-06T00:29:05;99441.52;;;4.55;71.46
84522;BME280;74758;50.066;20.008;2024-03-06T00:30:07;99444.46;;;4.52;71.08
84522;BME280;74758;50.066;20.008;2024-03-06T00:31:09;99441.13;;;4.50;71.29
84522;BME280;74758;50.066;20.008;2024-03-06T00:32:11;99439.35;;;4.48;71.30
84522;BME280;74758;50.066;20.008;2024-03-06T00:33:13;99438.58;;;4.46;71.44
84522;BME280;74758;50.066;20.008;2024-03-06T00:34:14;99439.89;;;4.44;71.29
84522;BME280;74758;50.066;20.008;2024-03-06T00:35:16;99441.53;;;4.43;71.50
84522;BME280;74758;50.066;20.008;2024-03-06T00:36:18;99443.34;;;4.42;71.43
84522;BME280;74758;50.066;20.008;2024-03-06T00:37:20;99443.19;;;4.42;71.75
84522;BME280;74758;50.066;20.008;2024-03-06T00:38:21;99444.16;;;4.40;71.86
84522;BME280;74758;50.066;20.008;2024-03-06T00:39:23;99446.34;;;4.39;71.51
84522;BME280;74758;50.066;20.008;2024-03-06T00:40:26;99446.38;;;4.38;71.09
84522;BME280;74758;50.066;20.008;2024-03-06T00:41:27;99447.66;;;4.37;71.26
84522;BME280;74758;50.066;20.008;2024-03-06T00:42:29;99446.45;;;4.37;71.42
84522;BME280;74758;50.066;20.008;2024-03-06T00:43:31;99446.98;;;4.37;71.37
84522;BME280;74758;50.066;20.008;2024-03-06T00:44:33;99447.36;;;4.36;71.32
84522;BME280;74758;50.066;20.008;2024-03-06T00:45:34;99446.73;;;4.35;71.49
84522;BME280;74758;50.066;20.008;2024-03-06T00:46:36;99443.26;;;4.32;71.71
84522;BME280;74758;50.066;20.008;2024-03-06T00:47:38;99447.76;;;4.30;71.76
84522;BME280;74758;50.066;20.008;2024-03-06T00:48:40;99443.51;;;4.28;71.64
84522;BME280;74758;50.066;20.008;2024-03-06T00:49:42;99447.10;;;4.26;71.78
84522;BME280;74758;50.066;20.008;2024-03-06T00:50:44;99447.35;;;4.25;71.79
84522;BME280;74758;50.066;20.008;2024-03-06T00:51:46;99451.12;;;4.24;72.00
84522;BME280;74758;50.066;20.008;2024-03-06T00:52:50;99449.29;;;4.22;72.15
84522;BME280;74758;50.066;20.008;2024-03-06T00:53:52;99454.58;;;4.21;72.26
84522;BME280;74758;50.066;20.008;2024-03-06T00:54:53;99452.21;;;4.20;71.93
84522;BME280;74758;50.066;20.008;2024-03-06T00:55:56;99451.61;;;4.18;72.20
84522;BME280;74758;50.066;20.008;2024-03-06T00:56:57;99454.29;;;4.17;71.94
84522;BME280;74758;50.066;20.008;2024-03-06T00:57:59;99453.15;;;4.16;72.16
84522;BME280;74758;50.066;20.008;2024-03-06T00:59:01;99457.83;;;4.16;72.44
84522;BME280;74758;50.066;20.008;2024-03-06T01:00:03;99454.06;;;4.15;72.21
84522;BME280;74758;50.066;20.008;2024-03-06T01:01:16;99457.17;;;4.16;72.10
84522;BME280;74758;50.066;20.008;2024-03-06T01:02:18;99454.02;;;4.16;71.77
84522;BME280;74758;50.066;20.008;2024-03-06T01:03:20;99453.13;;;4.16;72.08
84522;BME280;74758;50.066;20.008;2024-03-06T01:04:22;99454.48;;;4.17;71.97
84522;BME280;74758;50.066;20.008;2024-03-06T01:05:24;99453.53;;;4.18;71.81
84522;BME280;74758;50.066;20.008;2024-03-06T01:06:26;99452.48;;;4.18;72.05
84522;BME280;74758;50.066;20.008;2024-03-06T01:07:27;99453.72;;;4.18;71.79
84522;BME280;74758;50.066;20.008;2024-03-06T01:08:29;99453.52;;;4.18;72.16
84522;BME280;74758;50.066;20.008;2024-03-06T01:09:33;99452.64;;;4.19;72.03
84522;BME280;74758;50.066;20.008;2024-03-06T01:10:35;99454.73;;;4.19;72.20
84522;BME280;74758;50.066;20.008;2024-03-06T01:11:37;99454.75;;;4.18;71.82
84522;BME280;74758;50.066;20.008;2024-03-06T01:12:39;99450.63;;;4.17;71.98
84522;BME280;74758;50.066;20.008;2024-03-06T01:13:41;99449.30;;;4.16;72.09
84522;BME280;74758;50.066;20.008;2024-03-06T01:14:43;99454.21;;;4.16;72.28
84522;BME280;74758;50.066;20.008;2024-03-06T01:15:45;99451.64;;;4.15;72.24
84522;BME280;74758;50.066;20.008;2024-03-06T01:16:47;99450.33;;;4.13;72.08
84522;BME280;74758;50.066;20.008;2024-03-06T01:17:49;99449.90;;;4.12;72.01
84522;BME280;74758;50.066;20.008;2024-03-06T01:18:52;99450.15;;;4.11;72.00
84522;BME280;74758;50.066;20.008;2024-03-06T01:19:53;99445.71;;;4.09;72.33
84522;BME280;74758;50.066;20.008;2024-03-06T01:20:55;99446.25;;;4.09;72.43
84522;BME280;74758;50.066;20.008;2024-03-06T01:21:57;99442.11;;;4.08;71.90
84522;BME280;74758;50.066;20.008;2024-03-06T01:22:58;99441.77;;;4.08;72.13
84522;BME280;74758;50.066;20.008;2024-03-06T01:24:01;99440.96;;;4.08;72.18
84522;BME280;74758;50.066;20.008;2024-03-06T01:25:03;99441.33;;;4.07;71.95
84522;BME280;74758;50.066;20.008;2024-03-06T01:26:06;99442.55;;;4.07;71.87
84522;BME280;74758;50.066;20.008;2024-03-06T01:27:08;99443.45;;;4.06;72.03
84522;BME280;74758;50.066;20.008;2024-03-06T01:28:10;99443.88;;;4.05;71.79
84522;BME280;74758;50.066;20.008;2024-03-06T01:29:11;99445.34;;;4.04;72.11
84522;BME280;74758;50.066;20.008;2024-03-06T01:30:13;99443.33;;;4.03;71.81
84522;BME280;74758;50.066;20.008;2024-03-06T01:31:15;99443.02;;;4.02;71.88
84522;BME280;74758;50.066;20.008;2024-03-06T01:32:17;99445.05;;;4.03;71.75
84522;BME280;74758;50.066;20.008;2024-03-06T01:33:18;99446.55;;;4.01;71.76
84522;BME280;74758;50.066;20.008;2024-03-06T01:34:20;99445.18;;;4.01;72.05
84522;BME280;74758;50.066;20.008;2024-03-06T01:35:23;99445.59;;;4.00;71.77
84522;BME280;74758;50.066;20.008;2024-03-06T01:36:25;99449.32;;;3.99;71.81
84522;BME280;74758;50.066;20.008;2024-03-06T01:37:27;99447.08;;;3.95;71.78
84522;BME280;74758;50.066;20.008;2024-03-06T01:38:28;99448.12;;;3.93;71.57
84522;BME280;74758;50.066;20.008;2024-03-06T01:39:30;99453.84;;;3.90;71.73
84522;BME280;74758;50.066;20.008;2024-03-06T01:40:32;99455.22;;;3.87;71.97
84522;BME280;74758;50.066;20.008;2024-03-06T01:41:33;99455.12;;;3.86;72.27
84522;BME280;74758;50.066;20.008;2024-03-06T01:42:35;99455.73;;;3.84;71.85
84522;BME280;74758;50.066;20.008;2024-03-06T01:43:37;99457.32;;;3.83;71.99
84522;BME280;74758;50.066;20.008;2024-03-06T01:44:42;99459.38;;;3.84;72.20
84522;BME280;74758;50.066;20.008;2024-03-06T01:45:44;99459.46;;;3.83;72.07
84522;BME280;74758;50.066;20.008;2024-03-06T01:46:47;99460.04;;;3.82;72.00
84522;BME280;74758;50.066;20.008;2024-03-06T01:47:49;99457.00;;;3.80;71.88
84522;BME280;74758;50.066;20.008;2024-03-06T01:48:52;99457.27;;;3.78;72.11
84522;BME280;74758;50.066;20.008;2024-03-06T01:49:55;99458.80;;;3.76;72.14
84522;BME280;74758;50.066;20.008;2024-03-06T01:51:00;99458.55;;;3.75;72.04
84522;BME280;74758;50.066;20.008;2024-03-06T01:52:03;99460.61;;;3.72;72.27
84522;BME280;74758;50.066;20.008;2024-03-06T01:53:05;99461.75;;;3.70;72.31
84522;BME280;74758;50.066;20.008;2024-03-06T01:54:07;99463.11;;;3.68;72.39
84522;BME280;74758;50.066;20.008;2024-03-06T01:55:10;99463.77;;;3.66;72.78
84522;BME280;74758;50.066;20.008;2024-03-06T01:56:13;99468.80;;;3.66;72.91
84522;BME280;74758;50.066;20.008;2024-03-06T01:57:19;99463.07;;;3.66;73.01
84522;BME280;74758;50.066;20.008;2024-03-06T01:58:23;99462.23;;;3.65;73.10
84522;BME280;74758;50.066;20.008;2024-03-06T01:59:25;99463.29;;;3.65;73.19
84522;BME280;74758;50.066;20.008;2024-03-06T02:00:37;99461.39;;;3.65;73.21
84522;BME280;74758;50.066;20.008;2024-03-06T02:01:39;99460.83;;;3.66;73.10
84522;BME280;74758;50.066;20.008;2024-03-06T02:02:42;99457.48;;;3.66;73.00
84522;BME280;74758;50.066;20.008;2024-03-06T02:03:45;99456.13;;;3.66;73.29
84522;BME280;74758;50.066;20.008;2024-03-06T02:04:47;99456.10;;;3.66;73.07
84522;BME280;74758;50.066;20.008;2024-03-06T02:05:49;99456.56;;;3.67;73.38
84522;BME280;74758;50.066;20.008;2024-03-06T02:06:52;99457.02;;;3.68;73.00
84522;BME280;74758;50.066;20.008;2024-03-06T02:07:53;99454.80;;;3.67;73.07
84522;BME280;74758;50.066;20.008;2024-03-06T02:08:55;99453.73;;;3.68;73.06
84522;BME280;74758;50.066;20.008;2024-03-06T02:09:58;99453.13;;;3.66;72.95
84522;BME280;74758;50.066;20.008;2024-03-06T02:10:59;99452.86;;;3.65;73.13
84522;BME280;74758;50.066;20.008;2024-03-06T02:12:05;99453.94;;;3.62;73.08
84522;BME280;74758;50.066;20.008;2024-03-06T02:13:07;99455.45;;;3.60;73.23
84522;BME280;74758;50.066;20.008;2024-03-06T02:14:11;99451.04;;;3.58;73.17
84522;BME280;74758;50.066;20.008;2024-03-06T02:15:14;99453.17;;;3.57;73.13
84522;BME280;74758;50.066;20.008;2024-03-06T02:16:16;99450.11;;;3.56;73.45
84522;BME280;74758;50.066;20.008;2024-03-06T02:17:18;99455.10;;;3.54;73.34
84522;BME280;74758;50.066;20.008;2024-03-06T02:18:19;99457.45;;;3.52;73.35
84522;BME280;74758;50.066;20.008;2024-03-06T02:19:21;99455.41;;;3.51;73.40
84522;BME280;74758;50.066;20.008;2024-03-06T02:20:24;99458.89;;;3.51;73.38
84522;BME280;74758;50.066;20.008;2024-03-06T02:21:26;99459.05;;;3.52;73.52
84522;BME280;74758;50.066;20.008;2024-03-06T02:22:28;99461.25;;;3.53;73.39
84522;BME280;74758;50.066;20.008;2024-03-06T02:23:30;99460.58;;;3.52;73.47
84522;BME280;74758;50.066;20.008;2024-03-06T02:24:32;99465.22;;;3.53;73.52
84522;BME280;74758;50.066;20.008;2024-03-06T02:25:33;99461.33;;;3.54;73.48
84522;BME280;74758;50.066;20.008;2024-03-06T02:26:35;99460.55;;;3.56;73.35
84522;BME280;74758;50.066;20.008;2024-03-06T02:27:37;99460.27;;;3.55;73.33
84522;BME280;74758;50.066;20.008;2024-03-06T02:28:39;99466.38;;;3.57;73.41
84522;BME280;74758;50.066;20.008;2024-03-06T02:29:40;99467.02;;;3.58;73.78
84522;BME280;74758;50.066;20.008;2024-03-06T02:30:43;99466.92;;;3.60;73.58
84522;BME280;74758;50.066;20.008;2024-03-06T02:31:44;99469.66;;;3.60;73.59
84522;BME280;74758;50.066;20.008;2024-03-06T02:32:46;99469.64;;;3.60;73.28
84522;BME280;74758;50.066;20.008;2024-03-06T02:33:49;99470.13;;;3.61;73.63
84522;BME280;74758;50.066;20.008;2024-03-06T02:34:51;99469.08;;;3.62;73.94
84522;BME280;74758;50.066;20.008;2024-03-06T02:35:53;99473.18;;;3.62;73.43
84522;BME280;74758;50.066;20.008;2024-03-06T02:36:55;99475.59;;;3.63;73.62
84522;BME280;74758;50.066;20.008;2024-03-06T02:37:57;99478.98;;;3.64;73.51
84522;BME280;74758;50.066;20.008;2024-03-06T02:38:59;99475.39;;;3.66;73.42
84522;BME280;74758;50.066;20.008;2024-03-06T02:40:01;99477.41;;;3.67;73.48
84522;BME280;74758;50.066;20.008;2024-03-06T02:41:03;99476.16;;;3.68;73.78
84522;BME280;74758;50.066;20.008;2024-03-06T02:42:05;99476.97;;;3.69;73.67
84522;BME280;74758;50.066;20.008;2024-03-06T02:43:06;99477.08;;;3.70;73.77
84522;BME280;74758;50.066;20.008;2024-03-06T02:44:08;99481.14;;;3.72;73.88
84522;BME280;74758;50.066;20.008;2024-03-06T02:45:10;99480.40;;;3.73;73.66
84522;BME280;74758;50.066;20.008;2024-03-06T02:46:12;99481.11;;;3.72;73.36
84522;BME280;74758;50.066;20.008;2024-03-06T02:47:13;99484.95;;;3.72;73.51
84522;BME280;74758;50.066;20.008;2024-03-06T02:48:15;99479.34;;;3.70;73.40
84522;BME280;74758;50.066;20.008;2024-03-06T02:49:17;99478.55;;;3.69;73.34
84522;BME280;74758;50.066;20.008;2024-03-06T02:50:20;99480.92;;;3.67;73.66
84522;BME280;74758;50.066;20.008;2024-03-06T02:51:22;99476.95;;;3.66;73.24
84522;BME280;74758;50.066;20.008;2024-03-06T02:52:24;99479.71;;;3.67;73.40
84522;BME280;74758;50.066;20.008;2024-03-06T02:53:26;99480.59;;;3.67;73.20
84522;BME280;74758;50.066;20.008;2024-03-06T02:54:29;99483.73;;;3.66;73.70
84522;BME280;74758;50.066;20.008;2024-03-06T02:55:31;99483.14;;;3.65;73.47
84522;BME280;74758;50.066;20.008;2024-03-06T02:56:33;99483.17;;;3.64;73.64
84522;BME280;74758;50.066;20.008;2024-03-06T02:57:35;99484.58;;;3.64;73.36
84522;BME280;74758;50.066;20.008;2024-03-06T02:58:36;99486.45;;;3.64;73.48
84522;BME280;74758;50.066;20.008;2024-03-06T02:59:39;99485.70;;;3.66;73.58
84522;BME280;74758;50.066;20.008;2024-03-06T03:00:43;99487.28;;;3.68;73.36
84522;BME280;74758;50.066;20.008;2024-03-06T03:01:45;99487.91;;;3.69;73.38
84522;BME280;74758;50.066;20.008;2024-03-06T03:02:46;99490.30;;;3.70;73.33
84522;BME280;74758;50.066;20.008;2024-03-06T03:03:48;99490.67;;;3.69;73.29
84522;BME280;74758;50.066;20.008;2024-03-06T03:04:51;99489.60;;;3.70;73.47
84522;BME280;74758;50.066;20.008;2024-03-06T03:05:53;99489.23;;;3.70;73.17
84522;BME280;74758;50.066;20.008;2024-03-06T03:06:55;99488.52;;;3.71;73.20
84522;BME280;74758;50.066;20.008;2024-03-06T03:07:57;99490.40;;;3.71;73.51
84522;BME280;74758;50.066;20.008;2024-03-06T03:08:59;99489.55;;;3.71;73.39
84522;BME280;74758;50.066;20.008;2024-03-06T03:10:00;99494.23;;;3.71;73.39
84522;BME280;74758;50.066;20.008;2024-03-06T03:11:02;99493.02;;;3.71;73.50
84522;BME280;74758;50.066;20.008;2024-03-06T03:12:05;99490.91;;;3.71;73.64
84522;BME280;74758;50.066;20.008;2024-03-06T03:13:07;99492.02;;;3.73;73.51
84522;BME280;74758;50.066;20.008;2024-03-06T03:14:08;99493.53;;;3.74;73.45
84522;BME280;74758;50.066;20.008;2024-03-06T03:15:10;99495.59;;;3.74;73.42
84522;BME280;74758;50.066;20.008;2024-03-06T03:16:16;99495.25;;;3.74;73.30
84522;BME280;74758;50.066;20.008;2024-03-06T03:17:19;99497.30;;;3.75;73.48
84522;BME280;74758;50.066;20.008;2024-03-06T03:18:21;99497.41;;;3.76;73.39
84522;BME280;74758;50.066;20.008;2024-03-06T03:19:22;99496.18;;;3.76;73.33
84522;BME280;74758;50.066;20.008;2024-03-06T03:20:24;99496.46;;;3.77;73.29
84522;BME280;74758;50.066;20.008;2024-03-06T03:21:26;99500.81;;;3.77;73.27
84522;BME280;74758;50.066;20.008;2024-03-06T03:22:28;99501.23;;;3.76;73.27
84522;BME280;74758;50.066;20.008;2024-03-06T03:23:29;99501.42;;;3.76;73.02
84522;BME280;74758;50.066;20.008;2024-03-06T03:24:31;99505.71;;;3.77;73.38
84522;BME280;74758;50.066;20.008;2024-03-06T03:25:33;99510.20;;;3.77;73.37
84522;BME280;74758;50.066;20.008;2024-03-06T03:26:35;99509.17;;;3.77;73.42
84522;BME280;74758;50.066;20.008;2024-03-06T03:27:41;99508.80;;;3.77;73.40
84522;BME280;74758;50.066;20.008;2024-03-06T03:28:45;99507.50;;;3.79;73.55
84522;BME280;74758;50.066;20.008;2024-03-06T03:29:47;99507.13;;;3.79;73.25
84522;BME280;74758;50.066;20.008;2024-03-06T03:30:48;99508.94;;;3.81;73.28
84522;BME280;74758;50.066;20.008;2024-03-06T03:31:50;99505.98;;;3.81;73.48
84522;BME280;74758;50.066;20.008;2024-03-06T03:32:52;99509.80;;;3.81;73.14
84522;BME280;74758;50.066;20.008;2024-03-06T03:33:54;99509.42;;;3.81;73.03
84522;BME280;74758;50.066;20.008;2024-03-06T03:34:55;99507.29;;;3.82;73.36
84522;BME280;74758;50.066;20.008;2024-03-06T03:35:57;99503.45;;;3.83;73.03
84522;BME280;74758;50.066;20.008;2024-03-06T03:36:59;99504.94;;;3.84;73.07
84522;BME280;74758;50.066;20.008;2024-03-06T03:38:01;99503.30;;;3.82;73.05
84522;BME280;74758;50.066;20.008;2024-03-06T03:39:02;99502.52;;;3.81;73.25
84522;BME280;74758;50.066;20.008;2024-03-06T03:40:06;99499.79;;;3.80;73.06
84522;BME280;74758;50.066;20.008;2024-03-06T03:41:12;99503.50;;;3.79;72.95
84522;BME280;74758;50.066;20.008;2024-03-06T03:42:14;99503.40;;;3.78;73.34
84522;BME280;74758;50.066;20.008;2024-03-06T03:43:16;99506.58;;;3.77;73.15
84522;BME280;74758;50.066;20.008;2024-03-06T03:44:19;99504.24;;;3.75;73.00
84522;BME280;74758;50.066;20.008;2024-03-06T03:45:20;99506.29;;;3.73;73.07
84522;BME280;74758;50.066;20.008;2024-03-06T03:46:22;99508.48;;;3.71;73.10
84522;BME280;74758;50.066;20.008;2024-03-06T03:47:24;99507.07;;;3.71;73.24
84522;BME280;74758;50.066;20.008;2024-03-06T03:48:25;99509.77;;;3.70;73.41
84522;BME280;74758;50.066;20.008;2024-03-06T03:49:27;99509.60;;;3.70;73.17
84522;BME280;74758;50.066;20.008;2024-03-06T03:50:28;99511.02;;;3.70;73.36
84522;BME280;74758;50.066;20.008;2024-03-06T03:51:31;99509.79;;;3.70;73.23
84522;BME280;74758;50.066;20.008;2024-03-06T03:52:33;99511.46;;;3.70;73.37
84522;BME280;74758;50.066;20.008;2024-03-06T03:53:35;99510.57;;;3.71;73.15
84522;BME280;74758;50.066;20.008;2024-03-06T03:54:36;99508.11;;;3.71;73.36
84522;BME280;74758;50.066;20.008;2024-03-06T03:55:38;99511.41;;;3.71;73.34
84522;BME280;74758;50.066;20.008;2024-03-06T03:56:40;99507.16;;;3.73;73.40
84522;BME280;74758;50.066;20.008;2024-03-06T03:57:41;99511.44;;;3.74;73.27
84522;BME280;74758;50.066;20.008;2024-03-06T03:58:43;99506.92;;;3.74;73.43
84522;BME280;74758;50.066;20.008;2024-03-06T03:59:45;99506.77;;;3.74;73.39
84522;BME280;74758;50.066;20.008;2024-03-06T04:00:47;99507.66;;;3.73;73.23
84522;BME280;74758;50.066;20.008;2024-03-06T04:01:49;99506.14;;;3.72;73.17
84522;BME280;74758;50.066;20.008;2024-03-06T04:02:51;99508.79;;;3.72;73.43
84522;BME280;74758;50.066;20.008;2024-03-06T04:03:53;99507.20;;;3.72;73.42
84522;BME280;74758;50.066;20.008;2024-03-06T04:04:54;99511.05;;;3.72;73.27
84522;BME280;74758;50.066;20.008;2024-03-06T04:05:56;99509.58;;;3.70;73.52
84522;BME280;74758;50.066;20.008;2024-03-06T04:06:58;99507.43;;;3.68;73.60
84522;BME280;74758;50.066;20.008;2024-03-06T04:08:01;99508.03;;;3.67;73.45
84522;BME280;74758;50.066;20.008;2024-03-06T04:09:02;99506.85;;;3.66;73.51
84522;BME280;74758;50.066;20.008;2024-03-06T04:10:07;99506.48;;;3.67;73.47
84522;BME280;74758;50.066;20.008;2024-03-06T04:11:12;99505.36;;;3.68;73.59
84522;BME280;74758;50.066;20.008;2024-03-06T04:12:13;99506.32;;;3.69;73.57
84522;BME280;74758;50.066;20.008;2024-03-06T04:13:15;99505.75;;;3.70;73.56
84522;BME280;74758;50.066;20.008;2024-03-06T04:14:18;99507.07;;;3.71;73.49
84522;BME280;74758;50.066;20.008;2024-03-06T04:15:20;99505.41;;;3.70;73.46
84522;BME280;74758;50.066;20.008;2024-03-06T04:16:23;99507.07;;;3.69;73.41
84522;BME280;74758;50.066;20.008;2024-03-06T04:17:25;99506.20;;;3.68;73.45
84522;BME280;74758;50.066;20.008;2024-03-06T04:18:26;99506.45;;;3.67;73.26
84522;BME280;74758;50.066;20.008;2024-03-06T04:19:28;99509.77;;;3.67;73.48
84522;BME280;74758;50.066;20.008;2024-03-06T04:20:30;99509.98;;;3.66;73.27
84522;BME280;74758;50.066;20.008;2024-03-06T04:21:31;99507.58;;;3.66;73.28
84522;BME280;74758;50.066;20.008;2024-03-06T04:22:33;99509.75;;;3.64;73.37
84522;BME280;74758;50.066;20.008;2024-03-06T04:23:35;99509.65;;;3.63;73.42
84522;BME280;74758;50.066;20.008;2024-03-06T04:24:41;99512.52;;;3.62;73.15
84522;BME280;74758;50.066;20.008;2024-03-06T04:25:42;99507.70;;;3.61;73.19
84522;BME280;74758;50.066;20.008;2024-03-06T04:26:44;99512.55;;;3.58;73.36
84522;BME280;74758;50.066;20.008;2024-03-06T04:27:46;99510.40;;;3.56;73.30
84522;BME280;74758;50.066;20.008;2024-03-06T04:28:48;99513.95;;;3.55;73.20
84522;BME280;74758;50.066;20.008;2024-03-06T04:29:49;99509.34;;;3.54;73.37
84522;BME280;74758;50.066;20.008;2024-03-06T04:30:51;99511.63;;;3.53;73.33
84522;BME280;74758;50.066;20.008;2024-03-06T04:31:53;99514.27;;;3.52;73.15
84522;BME280;74758;50.066;20.008;2024-03-06T04:32:55;99517.23;;;3.52;73.28
84522;BME280;74758;50.066;20.008;2024-03-06T04:33:57;99515.80;;;3.53;73.23
84522;BME280;74758;50.066;20.008;2024-03-06T04:34:58;99518.87;;;3.54;73.18
84522;BME280;74758;50.066;20.008;2024-03-06T04:36:02;99518.48;;;3.55;73.30
84522;BME280;74758;50.066;20.008;2024-03-06T04:37:04;99519.85;;;3.55;73.09
84522;BME280;74758;50.066;20.008;2024-03-06T04:38:06;99520.35;;;3.56;73.13
84522;BME280;74758;50.066;20.008;2024-03-06T04:39:08;99519.30;;;3.56;73.32
84522;BME280;74758;50.066;20.008;2024-03-06T04:40:10;99515.73;;;3.54;73.01
84522;BME280;74758;50.066;20.008;2024-03-06T04:41:12;99517.55;;;3.53;73.10
84522;BME280;74758;50.066;20.008;2024-03-06T04:42:13;99517.41;;;3.52;73.05
84522;BME280;74758;50.066;20.008;2024-03-06T04:43:15;99519.20;;;3.51;73.11
84522;BME280;74758;50.066;20.008;2024-03-06T04:44:17;99517.50;;;3.50;73.04
84522;BME280;74758;50.066;20.008;2024-03-06T04:45:19;99520.04;;;3.48;72.98
84522;BME280;74758;50.066;20.008;2024-03-06T04:46:20;99520.05;;;3.48;72.99
84522;BME280;74758;50.066;20.008;2024-03-06T04:47:24;99522.67;;;3.48;73.18
84522;BME280;74758;50.066;20.008;2024-03-06T04:48:30;99522.65;;;3.48;73.15
84522;BME280;74758;50.066;20.008;2024-03-06T04:49:33;99521.95;;;3.48;73.13
84522;BME280;74758;50.066;20.008;2024-03-06T04:50:38;99519.44;;;3.50;73.24
84522;BME280;74758;50.066;20.008;2024-03-06T04:51:39;99519.04;;;3.51;73.17
84522;BME280;74758;50.066;20.008;2024-03-06T04:52:41;99520.75;;;3.51;73.11
84522;BME280;74758;50.066;20.008;2024-03-06T04:53:43;99517.27;;;3.51;73.05
84522;BME280;74758;50.066;20.008;2024-03-06T04:54:44;99518.10;;;3.52;72.68
84522;BME280;74758;50.066;20.008;2024-03-06T04:55:46;99517.34;;;3.50;72.99
84522;BME280;74758;50.066;20.008;2024-03-06T04:56:48;99514.67;;;3.48;72.87
84522;BME280;74758;50.066;20.008;2024-03-06T04:57:52;99516.60;;;3.48;72.91
84522;BME280;74758;50.066;20.008;2024-03-06T04:58:54;99520.84;;;3.46;73.16
84522;BME280;74758;50.066;20.008;2024-03-06T04:59:56;99518.33;;;3.45;73.11
84522;BME280;74758;50.066;20.008;2024-03-06T05:00:59;99516.52;;;3.43;73.13
84522;BME280;74758;50.066;20.008;2024-03-06T05:02:01;99516.63;;;3.41;73.18
84522;BME280;74758;50.066;20.008;2024-03-06T05:03:05;99519.98;;;3.41;73.41
84522;BME280;74758;50.066;20.008;2024-03-06T05:04:24;99522.17;;;3.38;73.17
84522;BME280;74758;50.066;20.008;2024-03-06T05:05:43;99525.13;;;3.38;73.09
84522;BME280;74758;50.066;20.008;2024-03-06T05:07:02;99523.45;;;3.38;73.17
84522;BME280;74758;50.066;20.008;2024-03-06T05:08:22;99529.91;;;3.37;73.26
84522;BME280;74758;50.066;20.008;2024-03-06T05:09:41;99533.02;;;3.35;73.10
84522;BME280;74758;50.066;20.008;2024-03-06T05:11:00;99530.09;;;3.31;73.06
84522;BME280;74758;50.066;20.008;2024-03-06T05:12:20;99531.94;;;3.29;73.22
84522;BME280;74758;50.066;20.008;2024-03-06T05:13:40;99532.17;;;3.28;73.33
84522;BME280;74758;50.066;20.008;2024-03-06T05:14:59;99534.95;;;3.28;73.38
84522;BME280;74758;50.066;20.008;2024-03-06T05:16:18;99536.98;;;3.29;73.22
84522;BME280;74758;50.066;20.008;2024-03-06T05:17:37;99537.94;;;3.27;73.32
84522;BME280;74758;50.066;20.008;2024-03-06T05:18:56;99538.54;;;3.26;73.36
84522;BME280;74758;50.066;20.008;2024-03-06T05:20:15;99535.96;;;3.25;73.42
84522;BME280;74758;50.066;20.008;2024-03-06T05:21:35;99538.48;;;3.23;73.28
84522;BME280;74758;50.066;20.008;2024-03-06T05:22:54;99538.42;;;3.21;73.58
84522;BME280;74758;50.066;20.008;2024-03-06T05:24:14;99537.71;;;3.21;73.68
84522;BME280;74758;50.066;20.008;2024-03-06T05:25:33;99537.30;;;3.19;73.65
84522;BME280;74758;50.066;20.008;2024-03-06T05:26:52;99545.52;;;3.18;73.62
84522;BME280;74758;50.066;20.008;2024-03-06T05:28:11;99544.23;;;3.16;73.58
84522;BME280;74758;50.066;20.008;2024-03-06T05:29:30;99547.41;;;3.15;73.68
84522;BME280;74758;50.066;20.008;2024-03-06T05:30:49;99544.29;;;3.15;73.63
84522;BME280;74758;50.066;20.008;2024-03-06T05:32:09;99544.69;;;3.14;73.62
84522;BME280;74758;50.066;20.008;2024-03-06T05:33:28;99541.98;;;3.13;73.67
84522;BME280;74758;50.066;20.008;2024-03-06T05:34:49;99544.33;;;3.12;73.77
84522;BME280;74758;50.066;20.008;2024-03-06T05:36:08;99543.16;;;3.11;73.82